»·PEaware :: N55NT KPDX-KBOI

N55NT :: KPDX-KBOI

FLIGHT INFORMATION

Flight Status: Arrived
Operator: Privately registered:
United States
More flights under this callsign
Pilot: Craig H. (6968)
Aircraft: BEECH AIRCRAFT PREMIER
(PRM1)
More flights by this aircraft type
Origin: KPDX Portland Intl
United States
Destination: KBOI Boise Air Terminal/Gowen
United States
More flights between these airports :: More routes between these airports
Route: WHAMY4 IMB DEVLE KYAAN3
File this flight plan on PilotEdge
Remarks:
Altitude:
(Current/Filed)
27,000ft
Speed:
(Current/Filed)
300kts
Departed: 12-Jan-20 03:55 PM
Arrived: 12-Jan-20 04:49 PM
Distance/Time
Traveled:
298nm/0:54
Distance/Time
To Go:
Arrived

Flight Plot

Page will automatically refresh every two minutes.

Flight plan parsing failed; only flown route is shown


Map Options




Map Legend


Flown Route
Filed Route
Departure Airport
Arrival Airport
Navaid (VOR, NDB)
Fix

Horizontal Profiles

Position Reports

Time Latitude Longitude Heading Altitude Ground
Speed
12-Jan-20 15:42 45.586465 -122.581206 208 29ft 0kts
12-Jan-20 15:43 45.586465 -122.581206 208 29ft 0kts
12-Jan-20 15:44 45.586465 -122.581206 208 29ft 0kts
12-Jan-20 15:45 45.586465 -122.581206 208 29ft 0kts
12-Jan-20 15:46 45.586465 -122.581206 208 29ft 0kts
12-Jan-20 15:47 45.586465 -122.581206 208 29ft 0kts
12-Jan-20 15:48 45.586465 -122.581207 208 29ft 0kts
12-Jan-20 15:49 45.586465 -122.581206 208 29ft 0kts
12-Jan-20 15:50 45.586347 -122.581065 90 29ft 2kts
12-Jan-20 15:51 45.588183 -122.581983 99 29ft 19kts
12-Jan-20 15:52 45.585622 -122.575298 118 29ft 18kts
12-Jan-20 15:53 45.583088 -122.568811 118 29ft 17kts
12-Jan-20 15:54 45.588944 -122.580380 295 219ft 144kts
12-Jan-20 15:55 45.612427 -122.643183 281 4060ft 202kts
12-Jan-20 15:57 45.635395 -122.716471 292 8557ft 207kts
12-Jan-20 15:58 45.664909 -122.789134 292 12270ft 221kts
12-Jan-20 15:59 45.661213 -122.873768 250 14962ft 236kts
12-Jan-20 16:00 45.599072 -122.917233 178 16192ft 296kts
12-Jan-20 16:01 45.529222 -122.853257 117 19077ft 351kts
12-Jan-20 16:02 45.489208 -122.723933 118 21554ft 364kts
12-Jan-20 16:03 45.447382 -122.590056 117 23788ft 378kts
12-Jan-20 16:04 45.403977 -122.451309 117 25876ft 387kts
12-Jan-20 16:05 45.358305 -122.306272 117 26841ft 426kts
12-Jan-20 16:06 45.306477 -122.142823 117 26835ft 474kts
12-Jan-20 16:07 45.250137 -121.966074 117 26820ft 504kts
12-Jan-20 16:08 45.201472 -121.774410 109 26811ft 520kts
12-Jan-20 16:09 45.151900 -121.580459 109 26799ft 527kts
12-Jan-20 16:10 45.101160 -121.384639 109 26778ft 531kts
12-Jan-20 16:11 45.050302 -121.191282 110 26763ft 517kts
12-Jan-20 16:12 44.999989 -121.001296 111 26758ft 514kts
12-Jan-20 16:13 44.952342 -120.822682 109 26707ft 492kts
12-Jan-20 16:14 44.928332 -120.652014 75 26804ft 402kts
12-Jan-20 16:15 44.937092 -120.496125 95 26758ft 415kts
12-Jan-20 16:16 44.911610 -120.332362 108 26728ft 438kts
12-Jan-20 16:16 44.880607 -120.193064 108 26714ft 450kts
12-Jan-20 16:18 44.837526 -119.992847 107 26710ft 461kts
12-Jan-20 16:18 44.806279 -119.847265 108 26696ft 466kts
12-Jan-20 16:19 44.768433 -119.671886 108 26691ft 470kts
12-Jan-20 16:21 44.723572 -119.465315 108 26692ft 474kts
12-Jan-20 16:21 44.690884 -119.316289 109 26684ft 476kts
12-Jan-20 16:22 44.651265 -119.138196 110 26684ft 477kts
12-Jan-20 16:23 44.611202 -118.959479 110 26685ft 478kts
12-Jan-20 16:24 44.570783 -118.780172 110 26687ft 479kts
12-Jan-20 16:25 44.529683 -118.599243 111 26691ft 481kts
12-Jan-20 16:26 44.487806 -118.416537 111 25586ft 490kts
12-Jan-20 16:27 44.446409 -118.236153 112 24404ft 490kts
12-Jan-20 16:28 44.404231 -118.056990 113 23114ft 475kts
12-Jan-20 16:29 44.363246 -117.881676 113 21690ft 467kts
12-Jan-20 16:30 44.322418 -117.709222 113 20188ft 464kts
12-Jan-20 16:31 44.281737 -117.538703 113 18864ft 452kts
12-Jan-20 16:32 44.244819 -117.383841 113 17192ft 402kts
12-Jan-20 16:33 44.205742 -117.243398 135 15943ft 362kts
12-Jan-20 16:34 44.138335 -117.151809 145 15390ft 333kts
12-Jan-20 16:35 44.070528 -117.063701 145 14364ft 331kts
12-Jan-20 16:36 44.003128 -116.975945 145 13047ft 330kts
12-Jan-20 16:37 43.944009 -116.878365 132 11716ft 327kts
12-Jan-20 16:38 43.894270 -116.777142 130 10349ft 310kts
12-Jan-20 16:39 43.846264 -116.678961 127 8983ft 306kts
12-Jan-20 16:40 43.791469 -116.606397 143 7732ft 253kts
12-Jan-20 16:41 43.736441 -116.547162 144 6705ft 249kts
12-Jan-20 16:42 43.683722 -116.490739 143 5855ft 234kts
12-Jan-20 16:43 43.635864 -116.435291 123 5338ft 214kts
12-Jan-20 16:44 43.611489 -116.364614 114 4693ft 180kts
12-Jan-20 16:45 43.592984 -116.310446 115 3876ft 125kts
12-Jan-20 16:46 43.579551 -116.270821 115 3247ft 115kts
12-Jan-20 16:47 43.567147 -116.234138 114 2833ft 81kts
12-Jan-20 16:48 43.564699 -116.224145 0 2848ft 0kts
12-Jan-20 16:49 43.565643 -116.224082 3 2848ft 17kts
12-Jan-20 16:50 43.568284 -116.227678 301 2843ft 18kts
12-Jan-20 16:51 43.570402 -116.229333 97 2839ft 8kts
12-Jan-20 16:52 43.570177 -116.228827 358 2840ft 0kts
12-Jan-20 16:53 43.570177 -116.228827 358 2840ft 0kts
12-Jan-20 16:54 43.570177 -116.228827 358 2840ft 0kts

Navigation Log

Ident Type
Flight plan parsing failed, navigation log unavailable